チャーチル の空港の天気 - METARとTAF

チャーチル空港 ( CYYQ / YYQ ) - カナダ マニトバ州Churchill
飛行場実況気象(Metar)
観測時間06/17 18:00 CDT (06/17 23:00 UTC)
風向・風速北北東 4m/s
視程10km以上
天気現象
全天の4割程度の雲 雲底高度 7010m
気温19℃
湿度37%
気圧1019.5hPa
METARCYYQ 172300Z 03007KT 15SM SCT230 19/04 A3010 RMK CI3 SLP195 DENSITY ALT 400FT
過去の天気等 Google飛行場航空写真 Wunderground天気予報

過去48時間のMETAR

飛行場予報(TAF)
発表時間: 6/17 18:39 CDT (6/17 23:39 UTC)
予報対象時間: 17日19時 CDT ~ 18日19時 CDT
風向・風速北北東 3m/s
視程10km以上
少しの雲 雲底高度 7010m
17日21時 CDT ~ 17日23時 CDT に徐々に
風向・風速南 4m/s
TAF CYYQ 172339Z 1800/1824 03006KT P6SM FEW230
BECMG 1802/1804 18008KT RMK NXT FCST BY 180600Z